sensor_id;sensor_type;location;lat;lon;timestamp;temperature;humidity
21950;DHT22;11139;51.284;7.226;2023-09-19T00:01:28;18.90;99.90
21950;DHT22;11139;51.284;7.226;2023-09-19T00:03:55;18.80;99.90
21950;DHT22;11139;51.284;7.226;2023-09-19T00:06:22;18.80;99.90
21950;DHT22;11139;51.284;7.226;2023-09-19T00:08:51;18.80;99.90
21950;DHT22;11139;51.284;7.226;2023-09-19T00:11:17;18.80;99.90
21950;DHT22;11139;51.284;7.226;2023-09-19T00:13:43;18.80;99.90
21950;DHT22;11139;51.284;7.226;2023-09-19T00:16:09;18.70;99.90
21950;DHT22;11139;51.284;7.226;2023-09-19T00:18:39;18.70;99.90
21950;DHT22;11139;51.284;7.226;2023-09-19T00:21:04;18.70;99.90
21950;DHT22;11139;51.284;7.226;2023-09-19T00:23:30;18.70;99.90
21950;DHT22;11139;51.284;7.226;2023-09-19T00:26:00;18.70;99.90
21950;DHT22;11139;51.284;7.226;2023-09-19T00:28:26;18.60;99.90
21950;DHT22;11139;51.284;7.226;2023-09-19T00:30:52;18.60;99.90
21950;DHT22;11139;51.284;7.226;2023-09-19T00:33:17;18.60;99.90
21950;DHT22;11139;51.284;7.226;2023-09-19T00:35:51;18.60;99.90
21950;DHT22;11139;51.284;7.226;2023-09-19T00:38:17;18.60;99.90
21950;DHT22;11139;51.284;7.226;2023-09-19T00:40:45;18.60;99.90
21950;DHT22;11139;51.284;7.226;2023-09-19T00:43:10;18.50;99.90
21950;DHT22;11139;51.284;7.226;2023-09-19T00:45:37;18.50;99.90
21950;DHT22;11139;51.284;7.226;2023-09-19T00:48:04;18.50;99.90
21950;DHT22;11139;51.284;7.226;2023-09-19T00:50:31;18.50;99.90
21950;DHT22;11139;51.284;7.226;2023-09-19T00:52:57;18.50;99.90
21950;DHT22;11139;51.284;7.226;2023-09-19T00:55:24;18.50;99.90
21950;DHT22;11139;51.284;7.226;2023-09-19T00:57:49;18.50;99.90
21950;DHT22;11139;51.284;7.226;2023-09-19T01:00:15;18.50;99.90
21950;DHT22;11139;51.284;7.226;2023-09-19T01:02:44;18.50;99.90
21950;DHT22;11139;51.284;7.226;2023-09-19T01:05:10;18.50;99.90
21950;DHT22;11139;51.284;7.226;2023-09-19T01:07:35;18.50;99.90
21950;DHT22;11139;51.284;7.226;2023-09-19T01:10:04;18.50;99.90
21950;DHT22;11139;51.284;7.226;2023-09-19T01:15:19;18.40;99.90
21950;DHT22;11139;51.284;7.226;2023-09-19T01:17:57;18.40;99.90
21950;DHT22;11139;51.284;7.226;2023-09-19T01:20:45;18.40;99.90
21950;DHT22;11139;51.284;7.226;2023-09-19T01:23:25;18.40;99.90
21950;DHT22;11139;51.284;7.226;2023-09-19T01:28:32;18.40;99.90
21950;DHT22;11139;51.284;7.226;2023-09-19T01:31:02;18.40;99.90
21950;DHT22;11139;51.284;7.226;2023-09-19T01:33:28;18.40;99.90
21950;DHT22;11139;51.284;7.226;2023-09-19T01:36:16;18.40;99.90
21950;DHT22;11139;51.284;7.226;2023-09-19T01:38:42;18.30;99.90
21950;DHT22;11139;51.284;7.226;2023-09-19T01:41:09;18.30;99.90
21950;DHT22;11139;51.284;7.226;2023-09-19T01:43:43;18.30;99.90
21950;DHT22;11139;51.284;7.226;2023-09-19T01:46:13;18.30;99.90
21950;DHT22;11139;51.284;7.226;2023-09-19T01:48:40;18.30;99.90
21950;DHT22;11139;51.284;7.226;2023-09-19T01:51:11;18.30;99.90
21950;DHT22;11139;51.284;7.226;2023-09-19T01:56:04;18.30;99.90
21950;DHT22;11139;51.284;7.226;2023-09-19T01:58:35;18.30;99.90
21950;DHT22;11139;51.284;7.226;2023-09-19T02:01:04;18.30;99.90
21950;DHT22;11139;51.284;7.226;2023-09-19T02:03:31;18.30;99.90
21950;DHT22;11139;51.284;7.226;2023-09-19T02:05:57;18.20;99.90
21950;DHT22;11139;51.284;7.226;2023-09-19T02:08:22;18.20;99.90
21950;DHT22;11139;51.284;7.226;2023-09-19T02:10:51;18.20;99.90
21950;DHT22;11139;51.284;7.226;2023-09-19T02:13:21;18.20;99.90
21950;DHT22;11139;51.284;7.226;2023-09-19T02:15:50;18.20;99.90
21950;DHT22;11139;51.284;7.226;2023-09-19T02:18:15;18.20;99.90
21950;DHT22;11139;51.284;7.226;2023-09-19T02:20:41;18.20;99.90
21950;DHT22;11139;51.284;7.226;2023-09-19T02:23:07;18.10;99.90
21950;DHT22;11139;51.284;7.226;2023-09-19T02:25:33;18.10;99.90
21950;DHT22;11139;51.284;7.226;2023-09-19T02:27:59;18.10;99.90
21950;DHT22;11139;51.284;7.226;2023-09-19T02:30:24;18.10;99.90
21950;DHT22;11139;51.284;7.226;2023-09-19T02:32:53;18.10;99.90
21950;DHT22;11139;51.284;7.226;2023-09-19T02:35:18;18.10;99.90
21950;DHT22;11139;51.284;7.226;2023-09-19T02:37:45;18.10;99.90
21950;DHT22;11139;51.284;7.226;2023-09-19T02:40:10;18.10;99.90
21950;DHT22;11139;51.284;7.226;2023-09-19T02:42:52;18.10;99.90
21950;DHT22;11139;51.284;7.226;2023-09-19T02:45:18;18.10;99.90
21950;DHT22;11139;51.284;7.226;2023-09-19T02:47:44;18.10;99.90
21950;DHT22;11139;51.284;7.226;2023-09-19T02:50:10;18.10;99.90
21950;DHT22;11139;51.284;7.226;2023-09-19T02:52:41;18.10;99.90
21950;DHT22;11139;51.284;7.226;2023-09-19T02:55:09;18.10;99.90
21950;DHT22;11139;51.284;7.226;2023-09-19T02:57:35;18.10;99.90
21950;DHT22;11139;51.284;7.226;2023-09-19T03:00:06;18.00;99.90
21950;DHT22;11139;51.284;7.226;2023-09-19T03:02:33;18.00;99.90
21950;DHT22;11139;51.284;7.226;2023-09-19T03:05:00;18.00;99.90
21950;DHT22;11139;51.284;7.226;2023-09-19T03:07:25;18.00;99.90
21950;DHT22;11139;51.284;7.226;2023-09-19T03:09:51;17.90;99.90
21950;DHT22;11139;51.284;7.226;2023-09-19T03:12:18;18.00;99.90
21950;DHT22;11139;51.284;7.226;2023-09-19T03:14:43;17.90;99.90
21950;DHT22;11139;51.284;7.226;2023-09-19T03:17:09;17.90;99.90
21950;DHT22;11139;51.284;7.226;2023-09-19T03:19:35;17.90;99.90
21950;DHT22;11139;51.284;7.226;2023-09-19T03:22:00;17.90;99.90
21950;DHT22;11139;51.284;7.226;2023-09-19T03:24:25;17.90;99.90
21950;DHT22;11139;51.284;7.226;2023-09-19T03:26:51;17.90;99.90
21950;DHT22;11139;51.284;7.226;2023-09-19T03:29:17;17.90;99.90
21950;DHT22;11139;51.284;7.226;2023-09-19T03:31:43;17.80;99.90
21950;DHT22;11139;51.284;7.226;2023-09-19T03:34:08;17.80;99.90
21950;DHT22;11139;51.284;7.226;2023-09-19T03:36:34;17.80;99.90
21950;DHT22;11139;51.284;7.226;2023-09-19T03:39:00;17.80;99.90
21950;DHT22;11139;51.284;7.226;2023-09-19T03:41:25;17.80;99.90
21950;DHT22;11139;51.284;7.226;2023-09-19T03:43:51;17.80;99.90
21950;DHT22;11139;51.284;7.226;2023-09-19T03:46:17;17.80;99.90
21950;DHT22;11139;51.284;7.226;2023-09-19T03:48:42;17.80;99.90
21950;DHT22;11139;51.284;7.226;2023-09-19T03:51:08;17.80;99.90
21950;DHT22;11139;51.284;7.226;2023-09-19T03:53:34;17.70;99.90
21950;DHT22;11139;51.284;7.226;2023-09-19T03:55:59;17.70;99.90
21950;DHT22;11139;51.284;7.226;2023-09-19T03:58:28;17.70;99.90
21950;DHT22;11139;51.284;7.226;2023-09-19T04:00:59;17.70;99.90
21950;DHT22;11139;51.284;7.226;2023-09-19T04:03:24;17.70;99.90
21950;DHT22;11139;51.284;7.226;2023-09-19T04:05:59;17.60;99.90
21950;DHT22;11139;51.284;7.226;2023-09-19T04:08:26;17.60;99.90
21950;DHT22;11139;51.284;7.226;2023-09-19T04:10:58;17.70;99.90
21950;DHT22;11139;51.284;7.226;2023-09-19T04:13:26;17.60;99.90
21950;DHT22;11139;51.284;7.226;2023-09-19T04:15:57;17.60;99.90
21950;DHT22;11139;51.284;7.226;2023-09-19T04:18:31;17.60;99.90
21950;DHT22;11139;51.284;7.226;2023-09-19T04:20:58;17.50;99.90
21950;DHT22;11139;51.284;7.226;2023-09-19T04:23:32;17.60;99.90
21950;DHT22;11139;51.284;7.226;2023-09-19T04:26:00;17.50;99.90
21950;DHT22;11139;51.284;7.226;2023-09-19T04:28:26;17.50;99.90
21950;DHT22;11139;51.284;7.226;2023-09-19T04:30:55;17.50;99.90
21950;DHT22;11139;51.284;7.226;2023-09-19T04:33:23;17.50;99.90
21950;DHT22;11139;51.284;7.226;2023-09-19T04:35:50;17.50;99.90
21950;DHT22;11139;51.284;7.226;2023-09-19T04:38:17;17.50;99.90
21950;DHT22;11139;51.284;7.226;2023-09-19T04:40:43;17.50;99.90
21950;DHT22;11139;51.284;7.226;2023-09-19T04:43:11;17.50;99.90
21950;DHT22;11139;51.284;7.226;2023-09-19T04:45:40;17.50;99.90
21950;DHT22;11139;51.284;7.226;2023-09-19T04:48:08;17.50;99.90
21950;DHT22;11139;51.284;7.226;2023-09-19T04:50:34;17.50;99.90
21950;DHT22;11139;51.284;7.226;2023-09-19T04:53:05;17.60;99.90
21950;DHT22;11139;51.284;7.226;2023-09-19T04:55:33;17.50;99.90
21950;DHT22;11139;51.284;7.226;2023-09-19T04:57:58;17.50;99.90
21950;DHT22;11139;51.284;7.226;2023-09-19T05:00:26;17.50;99.90
21950;DHT22;11139;51.284;7.226;2023-09-19T05:02:56;17.50;99.90
21950;DHT22;11139;51.284;7.226;2023-09-19T05:05:26;17.40;99.90
21950;DHT22;11139;51.284;7.226;2023-09-19T05:07:57;17.40;99.90
21950;DHT22;11139;51.284;7.226;2023-09-19T05:10:40;17.40;99.90
21950;DHT22;11139;51.284;7.226;2023-09-19T05:13:06;17.40;99.90
21950;DHT22;11139;51.284;7.226;2023-09-19T05:15:35;17.40;99.90
21950;DHT22;11139;51.284;7.226;2023-09-19T05:18:01;17.40;99.90
21950;DHT22;11139;51.284;7.226;2023-09-19T05:20:26;17.40;99.90
21950;DHT22;11139;51.284;7.226;2023-09-19T05:26:24;17.30;99.90
21950;DHT22;11139;51.284;7.226;2023-09-19T05:28:53;17.30;99.90
21950;DHT22;11139;51.284;7.226;2023-09-19T05:31:19;17.40;99.90
21950;DHT22;11139;51.284;7.226;2023-09-19T05:33:55;17.40;99.90
21950;DHT22;11139;51.284;7.226;2023-09-19T05:37:04;17.40;99.90
21950;DHT22;11139;51.284;7.226;2023-09-19T05:42:34;17.30;99.90
21950;DHT22;11139;51.284;7.226;2023-09-19T05:45:03;17.30;99.90
21950;DHT22;11139;51.284;7.226;2023-09-19T05:47:31;17.30;99.90
21950;DHT22;11139;51.284;7.226;2023-09-19T05:49:59;17.30;99.90
21950;DHT22;11139;51.284;7.226;2023-09-19T05:52:38;17.30;99.90
21950;DHT22;11139;51.284;7.226;2023-09-19T05:55:14;17.30;99.90
21950;DHT22;11139;51.284;7.226;2023-09-19T05:57:46;17.30;99.90
21950;DHT22;11139;51.284;7.226;2023-09-19T06:00:41;17.30;99.90
21950;DHT22;11139;51.284;7.226;2023-09-19T06:03:09;17.30;99.90
21950;DHT22;11139;51.284;7.226;2023-09-19T06:05:40;17.30;99.90
21950;DHT22;11139;51.284;7.226;2023-09-19T06:08:07;17.30;99.90
21950;DHT22;11139;51.284;7.226;2023-09-19T06:10:33;17.30;99.90
21950;DHT22;11139;51.284;7.226;2023-09-19T06:13:02;17.30;99.90
21950;DHT22;11139;51.284;7.226;2023-09-19T06:15:35;17.30;99.90
21950;DHT22;11139;51.284;7.226;2023-09-19T06:18:10;17.30;99.90
21950;DHT22;11139;51.284;7.226;2023-09-19T06:20:39;17.30;99.90
21950;DHT22;11139;51.284;7.226;2023-09-19T06:23:09;17.30;99.90
21950;DHT22;11139;51.284;7.226;2023-09-19T06:25:35;17.30;99.90
21950;DHT22;11139;51.284;7.226;2023-09-19T06:28:00;17.30;99.90
21950;DHT22;11139;51.284;7.226;2023-09-19T06:30:30;17.30;99.90
21950;DHT22;11139;51.284;7.226;2023-09-19T06:32:56;17.20;99.90
21950;DHT22;11139;51.284;7.226;2023-09-19T06:35:25;17.20;99.90
21950;DHT22;11139;51.284;7.226;2023-09-19T06:37:51;17.20;99.90
21950;DHT22;11139;51.284;7.226;2023-09-19T06:40:18;17.20;99.90
21950;DHT22;11139;51.284;7.226;2023-09-19T06:42:46;17.30;99.90
21950;DHT22;11139;51.284;7.226;2023-09-19T06:45:12;17.30;99.90
21950;DHT22;11139;51.284;7.226;2023-09-19T06:47:43;17.20;99.90
21950;DHT22;11139;51.284;7.226;2023-09-19T06:50:11;17.20;99.90
21950;DHT22;11139;51.284;7.226;2023-09-19T06:52:42;17.20;99.90
21950;DHT22;11139;51.284;7.226;2023-09-19T06:55:08;17.20;99.90
21950;DHT22;11139;51.284;7.226;2023-09-19T06:57:37;17.20;99.90
21950;DHT22;11139;51.284;7.226;2023-09-19T07:00:05;17.20;99.90
21950;DHT22;11139;51.284;7.226;2023-09-19T07:02:35;17.20;99.90
21950;DHT22;11139;51.284;7.226;2023-09-19T07:05:00;17.20;99.90
21950;DHT22;11139;51.284;7.226;2023-09-19T07:07:26;17.20;99.90
21950;DHT22;11139;51.284;7.226;2023-09-19T07:09:54;17.20;99.90
21950;DHT22;11139;51.284;7.226;2023-09-19T07:12:20;17.20;99.90
21950;DHT22;11139;51.284;7.226;2023-09-19T07:14:45;17.20;99.90
21950;DHT22;11139;51.284;7.226;2023-09-19T07:17:11;17.20;99.90
21950;DHT22;11139;51.284;7.226;2023-09-19T07:19:44;17.20;99.90
21950;DHT22;11139;51.284;7.226;2023-09-19T07:22:10;17.20;99.90
21950;DHT22;11139;51.284;7.226;2023-09-19T07:24:38;17.20;99.90
21950;DHT22;11139;51.284;7.226;2023-09-19T07:27:04;17.20;99.90
21950;DHT22;11139;51.284;7.226;2023-09-19T07:29:30;17.20;99.90
21950;DHT22;11139;51.284;7.226;2023-09-19T07:31:59;17.20;99.90
21950;DHT22;11139;51.284;7.226;2023-09-19T07:34:27;17.20;99.90
21950;DHT22;11139;51.284;7.226;2023-09-19T07:36:53;17.20;99.90
21950;DHT22;11139;51.284;7.226;2023-09-19T07:39:19;17.20;99.90
21950;DHT22;11139;51.284;7.226;2023-09-19T07:41:45;17.20;99.90
21950;DHT22;11139;51.284;7.226;2023-09-19T07:44:22;17.20;99.90
21950;DHT22;11139;51.284;7.226;2023-09-19T07:46:51;17.10;99.90
21950;DHT22;11139;51.284;7.226;2023-09-19T07:49:17;17.20;99.90
21950;DHT22;11139;51.284;7.226;2023-09-19T07:51:48;17.10;99.90
21950;DHT22;11139;51.284;7.226;2023-09-19T07:54:18;17.10;99.90
21950;DHT22;11139;51.284;7.226;2023-09-19T07:56:43;17.10;99.90
21950;DHT22;11139;51.284;7.226;2023-09-19T07:59:11;17.10;99.90
21950;DHT22;11139;51.284;7.226;2023-09-19T08:01:39;17.10;99.90
21950;DHT22;11139;51.284;7.226;2023-09-19T08:04:07;17.10;99.90
21950;DHT22;11139;51.284;7.226;2023-09-19T08:06:32;17.20;99.90
21950;DHT22;11139;51.284;7.226;2023-09-19T08:08:58;17.10;99.90
21950;DHT22;11139;51.284;7.226;2023-09-19T08:11:26;17.10;99.90
21950;DHT22;11139;51.284;7.226;2023-09-19T08:13:51;17.10;99.90
21950;DHT22;11139;51.284;7.226;2023-09-19T08:16:20;17.10;99.90
21950;DHT22;11139;51.284;7.226;2023-09-19T08:18:53;17.10;99.90
21950;DHT22;11139;51.284;7.226;2023-09-19T08:21:23;17.10;99.90
21950;DHT22;11139;51.284;7.226;2023-09-19T08:23:49;17.10;99.90
21950;DHT22;11139;51.284;7.226;2023-09-19T08:26:18;17.10;99.90
21950;DHT22;11139;51.284;7.226;2023-09-19T08:28:45;17.10;99.90
21950;DHT22;11139;51.284;7.226;2023-09-19T08:31:10;17.10;99.90
21950;DHT22;11139;51.284;7.226;2023-09-19T08:33:36;17.10;99.90
21950;DHT22;11139;51.284;7.226;2023-09-19T08:36:05;17.10;99.90
21950;DHT22;11139;51.284;7.226;2023-09-19T08:38:33;17.10;99.90
21950;DHT22;11139;51.284;7.226;2023-09-19T08:40:59;17.10;99.90
21950;DHT22;11139;51.284;7.226;2023-09-19T08:43:27;17.10;99.90
21950;DHT22;11139;51.284;7.226;2023-09-19T08:48:31;17.10;99.90
21950;DHT22;11139;51.284;7.226;2023-09-19T08:51:03;17.10;99.90
21950;DHT22;11139;51.284;7.226;2023-09-19T08:53:35;17.10;99.90
21950;DHT22;11139;51.284;7.226;2023-09-19T08:56:08;17.10;99.90
21950;DHT22;11139;51.284;7.226;2023-09-19T08:58:38;17.10;99.90
21950;DHT22;11139;51.284;7.226;2023-09-19T09:01:06;17.10;99.90
21950;DHT22;11139;51.284;7.226;2023-09-19T09:03:34;17.10;99.90
21950;DHT22;11139;51.284;7.226;2023-09-19T09:06:00;17.10;99.90
21950;DHT22;11139;51.284;7.226;2023-09-19T09:08:26;17.10;99.90
21950;DHT22;11139;51.284;7.226;2023-09-19T09:10:52;17.10;99.90
21950;DHT22;11139;51.284;7.226;2023-09-19T09:13:18;17.10;99.90
21950;DHT22;11139;51.284;7.226;2023-09-19T09:15:44;17.10;99.90
21950;DHT22;11139;51.284;7.226;2023-09-19T09:18:13;17.10;99.90
21950;DHT22;11139;51.284;7.226;2023-09-19T09:20:38;17.10;99.90
21950;DHT22;11139;51.284;7.226;2023-09-19T09:23:04;17.10;99.90
21950;DHT22;11139;51.284;7.226;2023-09-19T09:25:51;17.10;99.90
21950;DHT22;11139;51.284;7.226;2023-09-19T09:28:27;17.10;99.90
21950;DHT22;11139;51.284;7.226;2023-09-19T09:30:56;17.10;99.90
21950;DHT22;11139;51.284;7.226;2023-09-19T09:33:23;17.10;99.90
21950;DHT22;11139;51.284;7.226;2023-09-19T09:36:00;17.10;99.90
21950;DHT22;11139;51.284;7.226;2023-09-19T09:38:44;17.20;99.90
21950;DHT22;11139;51.284;7.226;2023-09-19T09:41:10;17.20;99.90
21950;DHT22;11139;51.284;7.226;2023-09-19T09:43:40;17.20;99.90
21950;DHT22;11139;51.284;7.226;2023-09-19T09:46:17;17.20;99.90
21950;DHT22;11139;51.284;7.226;2023-09-19T09:48:55;17.20;99.90
21950;DHT22;11139;51.284;7.226;2023-09-19T09:51:42;17.20;99.90
21950;DHT22;11139;51.284;7.226;2023-09-19T09:54:15;17.20;99.90
21950;DHT22;11139;51.284;7.226;2023-09-19T09:56:54;17.20;99.90
21950;DHT22;11139;51.284;7.226;2023-09-19T09:59:22;17.20;99.90
21950;DHT22;11139;51.284;7.226;2023-09-19T10:01:49;17.20;99.90
21950;DHT22;11139;51.284;7.226;2023-09-19T10:04:28;17.20;99.90
21950;DHT22;11139;51.284;7.226;2023-09-19T10:07:01;17.20;99.90
21950;DHT22;11139;51.284;7.226;2023-09-19T10:09:31;17.20;99.90
21950;DHT22;11139;51.284;7.226;2023-09-19T10:12:09;17.20;99.90
21950;DHT22;11139;51.284;7.226;2023-09-19T10:14:37;17.20;99.90
21950;DHT22;11139;51.284;7.226;2023-09-19T10:17:04;17.20;99.90
21950;DHT22;11139;51.284;7.226;2023-09-19T10:19:36;17.20;99.90
21950;DHT22;11139;51.284;7.226;2023-09-19T10:22:02;17.20;99.90
21950;DHT22;11139;51.284;7.226;2023-09-19T10:24:30;17.20;99.90
21950;DHT22;11139;51.284;7.226;2023-09-19T10:26:56;17.20;99.90
21950;DHT22;11139;51.284;7.226;2023-09-19T10:29:23;17.20;99.90
21950;DHT22;11139;51.284;7.226;2023-09-19T10:31:49;17.20;99.90
21950;DHT22;11139;51.284;7.226;2023-09-19T10:34:18;17.20;99.90
21950;DHT22;11139;51.284;7.226;2023-09-19T10:36:45;17.20;99.90
21950;DHT22;11139;51.284;7.226;2023-09-19T10:39:15;17.20;99.90
21950;DHT22;11139;51.284;7.226;2023-09-19T10:41:51;17.20;99.90
21950;DHT22;11139;51.284;7.226;2023-09-19T10:44:25;17.20;99.90
21950;DHT22;11139;51.284;7.226;2023-09-19T10:46:51;17.20;99.90
21950;DHT22;11139;51.284;7.226;2023-09-19T10:49:18;17.20;99.90
21950;DHT22;11139;51.284;7.226;2023-09-19T10:51:44;17.20;99.90
21950;DHT22;11139;51.284;7.226;2023-09-19T10:54:12;17.20;99.90
21950;DHT22;11139;51.284;7.226;2023-09-19T10:56:42;17.20;99.90
21950;DHT22;11139;51.284;7.226;2023-09-19T10:59:10;17.20;99.90
21950;DHT22;11139;51.284;7.226;2023-09-19T11:01:45;17.20;99.90
21950;DHT22;11139;51.284;7.226;2023-09-19T11:07:08;17.30;99.90
21950;DHT22;11139;51.284;7.226;2023-09-19T11:10:10;17.30;99.90
21950;DHT22;11139;51.284;7.226;2023-09-19T11:15:11;17.30;99.90
21950;DHT22;11139;51.284;7.226;2023-09-19T11:17:58;17.30;99.90
21950;DHT22;11139;51.284;7.226;2023-09-19T11:20:24;17.30;99.90
21950;DHT22;11139;51.284;7.226;2023-09-19T11:30:39;17.30;99.90
21950;DHT22;11139;51.284;7.226;2023-09-19T11:39:10;17.40;99.90
21950;DHT22;11139;51.284;7.226;2023-09-19T11:43:54;17.30;99.90
21950;DHT22;11139;51.284;7.226;2023-09-19T11:49:31;17.40;99.90
21950;DHT22;11139;51.284;7.226;2023-09-19T11:51:58;17.40;99.90
21950;DHT22;11139;51.284;7.226;2023-09-19T11:54:24;17.40;99.90
21950;DHT22;11139;51.284;7.226;2023-09-19T11:56:53;17.40;99.90
21950;DHT22;11139;51.284;7.226;2023-09-19T11:59:19;17.40;99.90
21950;DHT22;11139;51.284;7.226;2023-09-19T12:01:50;17.50;99.90
21950;DHT22;11139;51.284;7.226;2023-09-19T12:04:22;17.50;99.90
21950;DHT22;11139;51.284;7.226;2023-09-19T12:06:58;17.50;99.90
21950;DHT22;11139;51.284;7.226;2023-09-19T12:09:24;17.50;99.90
21950;DHT22;11139;51.284;7.226;2023-09-19T12:11:50;17.50;99.90
21950;DHT22;11139;51.284;7.226;2023-09-19T12:14:26;17.50;99.90
21950;DHT22;11139;51.284;7.226;2023-09-19T12:16:53;17.50;99.90
21950;DHT22;11139;51.284;7.226;2023-09-19T12:19:21;17.50;99.90
21950;DHT22;11139;51.284;7.226;2023-09-19T12:22:00;17.50;99.90
21950;DHT22;11139;51.284;7.226;2023-09-19T12:24:34;17.50;99.90
21950;DHT22;11139;51.284;7.226;2023-09-19T12:27:06;17.50;99.90
21950;DHT22;11139;51.284;7.226;2023-09-19T12:29:41;17.60;99.90
21950;DHT22;11139;51.284;7.226;2023-09-19T12:32:07;17.60;99.90
21950;DHT22;11139;51.284;7.226;2023-09-19T12:34:33;17.60;99.90
21950;DHT22;11139;51.284;7.226;2023-09-19T12:37:10;17.60;99.90
21950;DHT22;11139;51.284;7.226;2023-09-19T12:39:37;17.60;99.90
21950;DHT22;11139;51.284;7.226;2023-09-19T12:42:03;17.60;99.90
21950;DHT22;11139;51.284;7.226;2023-09-19T12:44:29;17.70;99.90
21950;DHT22;11139;51.284;7.226;2023-09-19T12:46:55;17.70;99.90
21950;DHT22;11139;51.284;7.226;2023-09-19T12:49:24;17.70;99.90
21950;DHT22;11139;51.284;7.226;2023-09-19T12:51:50;17.70;99.90
21950;DHT22;11139;51.284;7.226;2023-09-19T12:54:20;17.70;99.90
21950;DHT22;11139;51.284;7.226;2023-09-19T12:56:47;17.70;99.90
21950;DHT22;11139;51.284;7.226;2023-09-19T12:59:15;17.70;99.90
21950;DHT22;11139;51.284;7.226;2023-09-19T13:01:42;17.80;99.90
21950;DHT22;11139;51.284;7.226;2023-09-19T13:04:22;17.80;99.90
21950;DHT22;11139;51.284;7.226;2023-09-19T13:06:55;17.70;99.90
21950;DHT22;11139;51.284;7.226;2023-09-19T13:09:26;17.80;99.90
21950;DHT22;11139;51.284;7.226;2023-09-19T13:11:59;17.80;99.90
21950;DHT22;11139;51.284;7.226;2023-09-19T13:14:27;17.80;99.90
21950;DHT22;11139;51.284;7.226;2023-09-19T13:17:00;17.80;99.90
21950;DHT22;11139;51.284;7.226;2023-09-19T13:19:44;17.80;99.90
21950;DHT22;11139;51.284;7.226;2023-09-19T13:24:58;17.80;99.90
21950;DHT22;11139;51.284;7.226;2023-09-19T13:27:24;17.90;99.90
21950;DHT22;11139;51.284;7.226;2023-09-19T13:29:49;17.90;99.90
21950;DHT22;11139;51.284;7.226;2023-09-19T13:32:15;17.90;99.90
21950;DHT22;11139;51.284;7.226;2023-09-19T13:34:40;17.90;99.90
21950;DHT22;11139;51.284;7.226;2023-09-19T13:37:06;17.90;99.90
21950;DHT22;11139;51.284;7.226;2023-09-19T13:39:31;17.90;99.90
21950;DHT22;11139;51.284;7.226;2023-09-19T13:42:00;17.90;99.90
21950;DHT22;11139;51.284;7.226;2023-09-19T13:44:28;17.90;99.90
21950;DHT22;11139;51.284;7.226;2023-09-19T13:46:57;17.90;99.90
21950;DHT22;11139;51.284;7.226;2023-09-19T13:49:26;17.90;99.90
21950;DHT22;11139;51.284;7.226;2023-09-19T13:51:51;17.90;99.90
21950;DHT22;11139;51.284;7.226;2023-09-19T13:54:17;17.90;99.90
21950;DHT22;11139;51.284;7.226;2023-09-19T13:56:42;17.90;99.90
21950;DHT22;11139;51.284;7.226;2023-09-19T13:59:11;17.90;99.90
21950;DHT22;11139;51.284;7.226;2023-09-19T14:01:37;17.90;99.90
21950;DHT22;11139;51.284;7.226;2023-09-19T14:04:19;18.00;99.90
21950;DHT22;11139;51.284;7.226;2023-09-19T14:06:47;18.00;99.90
21950;DHT22;11139;51.284;7.226;2023-09-19T14:09:12;18.00;99.90
21950;DHT22;11139;51.284;7.226;2023-09-19T14:11:44;17.90;99.90
21950;DHT22;11139;51.284;7.226;2023-09-19T14:14:12;18.00;99.90
21950;DHT22;11139;51.284;7.226;2023-09-19T14:16:40;18.00;99.90
21950;DHT22;11139;51.284;7.226;2023-09-19T14:19:07;18.00;99.90
21950;DHT22;11139;51.284;7.226;2023-09-19T14:21:56;18.00;99.90
21950;DHT22;11139;51.284;7.226;2023-09-19T14:24:24;18.00;99.90
21950;DHT22;11139;51.284;7.226;2023-09-19T14:26:52;18.00;99.90
21950;DHT22;11139;51.284;7.226;2023-09-19T14:29:18;17.90;99.90
21950;DHT22;11139;51.284;7.226;2023-09-19T14:31:44;17.90;99.90
21950;DHT22;11139;51.284;7.226;2023-09-19T14:34:15;17.90;99.90
21950;DHT22;11139;51.284;7.226;2023-09-19T14:36:42;17.90;99.90
21950;DHT22;11139;51.284;7.226;2023-09-19T14:39:10;17.90;99.90
21950;DHT22;11139;51.284;7.226;2023-09-19T14:41:36;17.90;99.90
21950;DHT22;11139;51.284;7.226;2023-09-19T14:44:02;17.90;99.90
21950;DHT22;11139;51.284;7.226;2023-09-19T14:46:39;17.90;99.90
21950;DHT22;11139;51.284;7.226;2023-09-19T14:49:04;17.90;99.90
21950;DHT22;11139;51.284;7.226;2023-09-19T14:51:35;17.90;99.90
21950;DHT22;11139;51.284;7.226;2023-09-19T14:54:10;17.90;99.90
21950;DHT22;11139;51.284;7.226;2023-09-19T14:56:45;17.90;99.90
21950;DHT22;11139;51.284;7.226;2023-09-19T15:02:41;17.90;99.90
21950;DHT22;11139;51.284;7.226;2023-09-19T15:05:29;17.90;99.90
21950;DHT22;11139;51.284;7.226;2023-09-19T15:11:19;17.90;99.90
21950;DHT22;11139;51.284;7.226;2023-09-19T15:20:07;17.90;99.90
21950;DHT22;11139;51.284;7.226;2023-09-19T15:22:39;17.90;99.90
21950;DHT22;11139;51.284;7.226;2023-09-19T15:25:05;17.90;99.90
21950;DHT22;11139;51.284;7.226;2023-09-19T15:27:31;17.90;99.90
21950;DHT22;11139;51.284;7.226;2023-09-19T15:29:59;17.90;99.90
21950;DHT22;11139;51.284;7.226;2023-09-19T15:32:26;17.90;99.90
21950;DHT22;11139;51.284;7.226;2023-09-19T15:34:51;17.90;99.90
21950;DHT22;11139;51.284;7.226;2023-09-19T15:37:17;17.90;99.90
21950;DHT22;11139;51.284;7.226;2023-09-19T15:39:42;17.90;99.90
21950;DHT22;11139;51.284;7.226;2023-09-19T15:42:10;17.90;99.90
21950;DHT22;11139;51.284;7.226;2023-09-19T15:44:36;17.90;99.90
21950;DHT22;11139;51.284;7.226;2023-09-19T15:47:03;17.90;99.90
21950;DHT22;11139;51.284;7.226;2023-09-19T15:49:28;17.90;99.90
21950;DHT22;11139;51.284;7.226;2023-09-19T15:51:54;17.90;99.90
21950;DHT22;11139;51.284;7.226;2023-09-19T15:54:20;17.90;99.90
21950;DHT22;11139;51.284;7.226;2023-09-19T15:56:45;17.90;99.90
21950;DHT22;11139;51.284;7.226;2023-09-19T15:59:15;17.90;99.90
21950;DHT22;11139;51.284;7.226;2023-09-19T16:01:41;17.80;99.90
21950;DHT22;11139;51.284;7.226;2023-09-19T16:04:08;17.90;99.90
21950;DHT22;11139;51.284;7.226;2023-09-19T16:06:34;17.90;99.90
21950;DHT22;11139;51.284;7.226;2023-09-19T16:09:00;17.90;99.90
21950;DHT22;11139;51.284;7.226;2023-09-19T16:11:29;17.90;99.90
21950;DHT22;11139;51.284;7.226;2023-09-19T16:13:55;17.90;99.90
21950;DHT22;11139;51.284;7.226;2023-09-19T16:16:21;17.90;99.90
21950;DHT22;11139;51.284;7.226;2023-09-19T16:18:54;18.00;99.90
21950;DHT22;11139;51.284;7.226;2023-09-19T16:21:24;17.90;99.90
21950;DHT22;11139;51.284;7.226;2023-09-19T16:23:52;18.00;99.90
21950;DHT22;11139;51.284;7.226;2023-09-19T16:26:19;18.00;99.90
21950;DHT22;11139;51.284;7.226;2023-09-19T16:28:46;18.00;99.90
21950;DHT22;11139;51.284;7.226;2023-09-19T16:31:12;18.00;99.90
21950;DHT22;11139;51.284;7.226;2023-09-19T16:33:39;18.00;99.90
21950;DHT22;11139;51.284;7.226;2023-09-19T16:36:11;18.00;99.90
21950;DHT22;11139;51.284;7.226;2023-09-19T16:38:37;18.00;99.90